Lebanon, MO

9:24 AM CDT on September 02, 2015 (GMT -0500)
S. Newport, Conway | | Change Station
CLOSE
Current Station
Personal Weather Station
Location: Conway, MO
Elevation: 1394 ft
Nearby Weather Stations

Elev 1394 ft 37.50 °N, 92.83 °W | Updated 12 seconds ago

Clear
Clear
81.3 °F
Feels Like 84 °F
N
9.8
Wind Variable Wind from North
Gusts 9.8 mph

Today
High -- | Low -- °F
--% Chance of Precip.
Yesterday
High -- | Low -- °F
Precip. -- in
6:41 AM 7:38 PM
Waning Gibbous, 80% visible
Pressure 30.10 in
Visibility 10.0 miles
Clouds Clear
Heat Index 84 °F
Dew Point 68 °F
Humidity 64%
Rainfall 0.00 in
Snow Depth Not available.
UV 2 out of 12
Pollen 10.90 out of 12
Air Quality Not available.
Flu Activity Not available.
METAR KTBN 021358Z AUTO VRB04KT 10SM CLR 25/21 A3012 RMK AO2 SLP192 T02510205
Pressure 30.10 in
Visibility 10.0 miles
Clouds Clear
Heat Index 84 °F
Dew Point 68 °F
Humidity 64%
Rainfall 0.00 in
Snow Depth Not available.
UV 2 out of 12
Pollen 10.90 out of 12
Air Quality Not available.
Flu Activity Not available.
METAR KTBN 021358Z AUTO VRB04KT 10SM CLR 25/21 A3012 RMK AO2 SLP192 T02510205

10-Day Weather Forecast

×

Almanac

Astronomy

Sep. 02, 2015 Rise Set
Actual Time
Civil Twilight
Nautical Twilight
Astronomical Twilight
Moon
Length of Visible Light
Length of Day
Tomorrow will be .
, % of the Moon is Illuminated

Today's Extremes

State Highs State Lows

Community

WunderPhotos

Upload Photos

1,851,763 photos uploaded!

WunderBlogs® & News

Nearby

Air Quality

  Air Quality AQ Index Pollutant
Not available.

Snow Depth

Station Depth Elevation

Earthquake Activity

City Distance Mag. Time & Date
Minimum magnitude displayed is 2.5.

Coastal Water Temperatures

Place Temperature

Stations

Nearby Weather Stations

Station Location Temp. Windchill Dew Point Humidity Wind Precip. Elev Updated Type